sensor_id;sensor_type;location;lat;lon;timestamp;P1;durP1;ratioP1;P2;durP2;ratioP2
10596;SDS011;5346;48.766;8.674;2022-11-03T00:00:09;19.30;;;3.37;;
10596;SDS011;5346;48.766;8.674;2022-11-03T00:02:38;8.93;;;3.20;;
10596;SDS011;5346;48.766;8.674;2022-11-03T00:05:05;9.63;;;3.07;;
10596;SDS011;5346;48.766;8.674;2022-11-03T00:08:02;10.30;;;3.10;;
10596;SDS011;5346;48.766;8.674;2022-11-03T00:10:30;7.57;;;2.90;;
10596;SDS011;5346;48.766;8.674;2022-11-03T00:12:58;8.83;;;2.93;;
10596;SDS011;5346;48.766;8.674;2022-11-03T00:15:32;11.17;;;2.93;;
10596;SDS011;5346;48.766;8.674;2022-11-03T00:18:00;8.10;;;2.50;;
10596;SDS011;5346;48.766;8.674;2022-11-03T00:20:27;13.13;;;3.23;;
10596;SDS011;5346;48.766;8.674;2022-11-03T00:23:01;8.87;;;2.60;;
10596;SDS011;5346;48.766;8.674;2022-11-03T00:25:29;11.57;;;3.20;;
10596;SDS011;5346;48.766;8.674;2022-11-03T00:27:56;9.70;;;3.03;;
10596;SDS011;5346;48.766;8.674;2022-11-03T00:30:30;10.23;;;3.30;;
10596;SDS011;5346;48.766;8.674;2022-11-03T00:32:57;10.43;;;3.53;;
10596;SDS011;5346;48.766;8.674;2022-11-03T00:35:25;12.83;;;3.80;;
10596;SDS011;5346;48.766;8.674;2022-11-03T00:37:59;11.27;;;3.00;;
10596;SDS011;5346;48.766;8.674;2022-11-03T00:40:26;11.03;;;3.70;;
10596;SDS011;5346;48.766;8.674;2022-11-03T00:42:54;9.47;;;3.13;;
10596;SDS011;5346;48.766;8.674;2022-11-03T00:45:28;9.80;;;3.43;;
10596;SDS011;5346;48.766;8.674;2022-11-03T00:47:55;10.30;;;3.20;;
10596;SDS011;5346;48.766;8.674;2022-11-03T00:50:48;13.27;;;3.77;;
10596;SDS011;5346;48.766;8.674;2022-11-03T00:53:15;12.73;;;3.03;;
10596;SDS011;5346;48.766;8.674;2022-11-03T00:55:47;10.83;;;3.27;;
10596;SDS011;5346;48.766;8.674;2022-11-03T00:58:22;12.67;;;3.30;;
10596;SDS011;5346;48.766;8.674;2022-11-03T01:00:49;9.20;;;3.53;;
10596;SDS011;5346;48.766;8.674;2022-11-03T01:03:31;10.60;;;2.90;;
10596;SDS011;5346;48.766;8.674;2022-11-03T01:06:04;10.60;;;3.33;;
10596;SDS011;5346;48.766;8.674;2022-11-03T01:09:02;12.53;;;3.23;;
10596;SDS011;5346;48.766;8.674;2022-11-03T01:11:29;11.43;;;3.33;;
10596;SDS011;5346;48.766;8.674;2022-11-03T01:14:16;8.23;;;2.97;;
10596;SDS011;5346;48.766;8.674;2022-11-03T01:16:43;16.33;;;3.03;;
10596;SDS011;5346;48.766;8.674;2022-11-03T01:21:58;14.53;;;2.90;;
10596;SDS011;5346;48.766;8.674;2022-11-03T01:24:25;7.80;;;3.03;;
10596;SDS011;5346;48.766;8.674;2022-11-03T01:26:53;9.40;;;2.83;;
10596;SDS011;5346;48.766;8.674;2022-11-03T01:29:27;14.00;;;2.90;;
10596;SDS011;5346;48.766;8.674;2022-11-03T01:31:54;6.17;;;2.80;;
10596;SDS011;5346;48.766;8.674;2022-11-03T01:34:22;10.10;;;2.77;;
10596;SDS011;5346;48.766;8.674;2022-11-03T01:36:57;10.33;;;3.30;;
10596;SDS011;5346;48.766;8.674;2022-11-03T01:39:31;10.03;;;3.17;;
10596;SDS011;5346;48.766;8.674;2022-11-03T01:42:05;12.20;;;2.70;;
10596;SDS011;5346;48.766;8.674;2022-11-03T01:44:34;16.57;;;3.40;;
10596;SDS011;5346;48.766;8.674;2022-11-03T01:49:43;7.27;;;2.90;;
10596;SDS011;5346;48.766;8.674;2022-11-03T01:52:18;12.80;;;3.30;;
10596;SDS011;5346;48.766;8.674;2022-11-03T01:55:01;9.27;;;3.10;;
10596;SDS011;5346;48.766;8.674;2022-11-03T01:57:36;9.13;;;3.13;;
10596;SDS011;5346;48.766;8.674;2022-11-03T02:00:16;12.00;;;3.40;;
10596;SDS011;5346;48.766;8.674;2022-11-03T02:02:43;14.97;;;3.53;;
10596;SDS011;5346;48.766;8.674;2022-11-03T02:05:11;9.73;;;3.57;;
10596;SDS011;5346;48.766;8.674;2022-11-03T02:08:00;13.77;;;3.20;;
10596;SDS011;5346;48.766;8.674;2022-11-03T02:10:30;12.37;;;3.40;;
10596;SDS011;5346;48.766;8.674;2022-11-03T02:13:17;12.87;;;3.60;;
10596;SDS011;5346;48.766;8.674;2022-11-03T02:15:47;12.73;;;3.20;;
10596;SDS011;5346;48.766;8.674;2022-11-03T02:18:23;11.63;;;3.80;;
10596;SDS011;5346;48.766;8.674;2022-11-03T02:20:56;14.10;;;3.20;;
10596;SDS011;5346;48.766;8.674;2022-11-03T02:26:40;10.47;;;2.70;;
10596;SDS011;5346;48.766;8.674;2022-11-03T02:29:19;9.50;;;2.90;;
10596;SDS011;5346;48.766;8.674;2022-11-03T02:31:50;8.23;;;2.80;;
10596;SDS011;5346;48.766;8.674;2022-11-03T02:34:52;9.27;;;2.83;;
10596;SDS011;5346;48.766;8.674;2022-11-03T02:37:41;8.90;;;2.60;;
10596;SDS011;5346;48.766;8.674;2022-11-03T02:40:19;5.87;;;2.60;;
10596;SDS011;5346;48.766;8.674;2022-11-03T02:42:50;7.90;;;2.80;;
10596;SDS011;5346;48.766;8.674;2022-11-03T02:45:25;14.10;;;3.63;;
10596;SDS011;5346;48.766;8.674;2022-11-03T02:47:59;9.47;;;2.67;;
10596;SDS011;5346;48.766;8.674;2022-11-03T02:50:35;10.23;;;3.23;;
10596;SDS011;5346;48.766;8.674;2022-11-03T02:53:02;10.53;;;3.10;;
10596;SDS011;5346;48.766;8.674;2022-11-03T02:58:15;9.30;;;3.13;;
10596;SDS011;5346;48.766;8.674;2022-11-03T03:00:48;13.57;;;3.10;;
10596;SDS011;5346;48.766;8.674;2022-11-03T03:03:47;10.93;;;3.30;;
10596;SDS011;5346;48.766;8.674;2022-11-03T03:06:22;12.80;;;3.70;;
10596;SDS011;5346;48.766;8.674;2022-11-03T03:09:02;14.23;;;3.67;;
10596;SDS011;5346;48.766;8.674;2022-11-03T03:11:33;11.53;;;3.87;;
10596;SDS011;5346;48.766;8.674;2022-11-03T03:14:12;10.73;;;3.90;;
10596;SDS011;5346;48.766;8.674;2022-11-03T03:16:51;14.80;;;4.67;;
10596;SDS011;5346;48.766;8.674;2022-11-03T03:22:23;15.53;;;4.77;;
10596;SDS011;5346;48.766;8.674;2022-11-03T03:25:12;13.47;;;4.30;;
10596;SDS011;5346;48.766;8.674;2022-11-03T03:27:54;15.73;;;4.73;;
10596;SDS011;5346;48.766;8.674;2022-11-03T03:30:34;11.00;;;5.30;;
10596;SDS011;5346;48.766;8.674;2022-11-03T03:33:03;15.33;;;5.63;;
10596;SDS011;5346;48.766;8.674;2022-11-03T03:35:33;14.03;;;5.27;;
10596;SDS011;5346;48.766;8.674;2022-11-03T03:38:17;13.23;;;5.93;;
10596;SDS011;5346;48.766;8.674;2022-11-03T03:40:49;14.43;;;5.20;;
10596;SDS011;5346;48.766;8.674;2022-11-03T03:43:26;23.17;;;5.27;;
10596;SDS011;5346;48.766;8.674;2022-11-03T03:45:57;17.07;;;5.50;;
10596;SDS011;5346;48.766;8.674;2022-11-03T03:48:37;12.43;;;4.73;;
10596;SDS011;5346;48.766;8.674;2022-11-03T03:51:04;11.90;;;4.80;;
10596;SDS011;5346;48.766;8.674;2022-11-03T03:53:34;13.97;;;5.07;;
10596;SDS011;5346;48.766;8.674;2022-11-03T03:56:08;15.17;;;4.57;;
10596;SDS011;5346;48.766;8.674;2022-11-03T03:58:36;17.50;;;5.20;;
10596;SDS011;5346;48.766;8.674;2022-11-03T04:01:04;12.47;;;4.37;;
10596;SDS011;5346;48.766;8.674;2022-11-03T04:03:38;16.23;;;4.70;;
10596;SDS011;5346;48.766;8.674;2022-11-03T04:06:06;13.93;;;4.13;;
10596;SDS011;5346;48.766;8.674;2022-11-03T04:08:35;12.97;;;4.23;;
10596;SDS011;5346;48.766;8.674;2022-11-03T04:11:09;7.67;;;3.73;;
10596;SDS011;5346;48.766;8.674;2022-11-03T04:13:55;11.33;;;3.63;;
10596;SDS011;5346;48.766;8.674;2022-11-03T04:16:47;10.37;;;3.63;;
10596;SDS011;5346;48.766;8.674;2022-11-03T04:19:33;11.50;;;3.80;;
10596;SDS011;5346;48.766;8.674;2022-11-03T04:22:28;14.57;;;3.87;;
10596;SDS011;5346;48.766;8.674;2022-11-03T04:24:58;13.40;;;4.00;;
10596;SDS011;5346;48.766;8.674;2022-11-03T04:27:36;13.40;;;3.90;;
10596;SDS011;5346;48.766;8.674;2022-11-03T04:32:48;15.27;;;4.17;;
10596;SDS011;5346;48.766;8.674;2022-11-03T04:35:25;14.53;;;4.03;;
10596;SDS011;5346;48.766;8.674;2022-11-03T04:38:02;10.50;;;4.10;;
10596;SDS011;5346;48.766;8.674;2022-11-03T04:40:44;11.83;;;3.73;;
10596;SDS011;5346;48.766;8.674;2022-11-03T04:43:34;12.03;;;4.43;;
10596;SDS011;5346;48.766;8.674;2022-11-03T04:46:04;10.47;;;4.77;;
10596;SDS011;5346;48.766;8.674;2022-11-03T04:48:42;13.63;;;4.77;;
10596;SDS011;5346;48.766;8.674;2022-11-03T04:51:14;11.67;;;5.33;;
10596;SDS011;5346;48.766;8.674;2022-11-03T04:53:51;14.27;;;4.70;;
10596;SDS011;5346;48.766;8.674;2022-11-03T04:56:26;17.70;;;4.80;;
10596;SDS011;5346;48.766;8.674;2022-11-03T04:59:01;12.90;;;4.43;;
10596;SDS011;5346;48.766;8.674;2022-11-03T05:01:33;11.67;;;4.60;;
10596;SDS011;5346;48.766;8.674;2022-11-03T05:04:01;13.73;;;5.27;;
10596;SDS011;5346;48.766;8.674;2022-11-03T05:06:40;17.23;;;6.17;;
10596;SDS011;5346;48.766;8.674;2022-11-03T05:09:16;10.80;;;5.40;;
10596;SDS011;5346;48.766;8.674;2022-11-03T05:12:08;15.80;;;6.20;;
10596;SDS011;5346;48.766;8.674;2022-11-03T05:14:36;16.47;;;6.20;;
10596;SDS011;5346;48.766;8.674;2022-11-03T05:17:10;15.13;;;6.93;;
10596;SDS011;5346;48.766;8.674;2022-11-03T05:20:01;11.93;;;6.37;;
10596;SDS011;5346;48.766;8.674;2022-11-03T05:22:34;15.90;;;6.83;;
10596;SDS011;5346;48.766;8.674;2022-11-03T05:28:04;15.60;;;6.00;;
10596;SDS011;5346;48.766;8.674;2022-11-03T05:30:48;11.33;;;6.40;;
10596;SDS011;5346;48.766;8.674;2022-11-03T05:33:28;18.40;;;6.63;;
10596;SDS011;5346;48.766;8.674;2022-11-03T05:36:24;16.10;;;7.20;;
10596;SDS011;5346;48.766;8.674;2022-11-03T05:38:55;12.10;;;6.20;;
10596;SDS011;5346;48.766;8.674;2022-11-03T05:41:48;21.97;;;7.07;;
10596;SDS011;5346;48.766;8.674;2022-11-03T05:50:10;15.40;;;7.00;;
10596;SDS011;5346;48.766;8.674;2022-11-03T05:52:47;17.03;;;7.00;;
10596;SDS011;5346;48.766;8.674;2022-11-03T05:55:23;14.07;;;6.40;;
10596;SDS011;5346;48.766;8.674;2022-11-03T05:58:40;19.90;;;6.50;;
10596;SDS011;5346;48.766;8.674;2022-11-03T06:01:03;22.83;;;6.23;;
10596;SDS011;5346;48.766;8.674;2022-11-03T06:03:56;14.43;;;6.30;;
10596;SDS011;5346;48.766;8.674;2022-11-03T06:09:15;19.73;;;6.10;;
10596;SDS011;5346;48.766;8.674;2022-11-03T06:11:49;18.47;;;6.67;;
10596;SDS011;5346;48.766;8.674;2022-11-03T06:14:25;14.27;;;6.80;;
10596;SDS011;5346;48.766;8.674;2022-11-03T06:16:59;15.27;;;5.83;;
10596;SDS011;5346;48.766;8.674;2022-11-03T06:19:44;18.10;;;6.50;;
10596;SDS011;5346;48.766;8.674;2022-11-03T06:24:58;15.73;;;7.00;;
10596;SDS011;5346;48.766;8.674;2022-11-03T06:27:36;15.87;;;6.73;;
10596;SDS011;5346;48.766;8.674;2022-11-03T06:35:49;19.23;;;6.40;;
10596;SDS011;5346;48.766;8.674;2022-11-03T06:38:29;13.90;;;6.13;;
10596;SDS011;5346;48.766;8.674;2022-11-03T06:41:12;17.23;;;6.40;;
10596;SDS011;5346;48.766;8.674;2022-11-03T06:43:45;15.47;;;6.17;;
10596;SDS011;5346;48.766;8.674;2022-11-03T06:46:21;16.30;;;6.10;;
10596;SDS011;5346;48.766;8.674;2022-11-03T06:48:59;15.10;;;6.10;;
10596;SDS011;5346;48.766;8.674;2022-11-03T06:51:36;14.53;;;6.00;;
10596;SDS011;5346;48.766;8.674;2022-11-03T06:54:04;17.47;;;5.20;;
10596;SDS011;5346;48.766;8.674;2022-11-03T06:56:35;13.77;;;5.10;;
10596;SDS011;5346;48.766;8.674;2022-11-03T06:59:10;13.40;;;4.97;;
10596;SDS011;5346;48.766;8.674;2022-11-03T07:01:41;13.27;;;4.37;;
10596;SDS011;5346;48.766;8.674;2022-11-03T07:04:21;8.77;;;4.00;;
10596;SDS011;5346;48.766;8.674;2022-11-03T07:06:54;10.67;;;4.03;;
10596;SDS011;5346;48.766;8.674;2022-11-03T07:09:34;9.60;;;4.10;;
10596;SDS011;5346;48.766;8.674;2022-11-03T07:12:02;8.93;;;3.40;;
10596;SDS011;5346;48.766;8.674;2022-11-03T07:14:41;9.23;;;4.10;;
10596;SDS011;5346;48.766;8.674;2022-11-03T07:17:14;10.83;;;3.67;;
10596;SDS011;5346;48.766;8.674;2022-11-03T07:19:53;10.27;;;3.50;;
10596;SDS011;5346;48.766;8.674;2022-11-03T07:22:21;7.17;;;3.37;;
10596;SDS011;5346;48.766;8.674;2022-11-03T07:24:52;10.03;;;4.30;;
10596;SDS011;5346;48.766;8.674;2022-11-03T07:27:35;8.87;;;3.57;;
10596;SDS011;5346;48.766;8.674;2022-11-03T07:33:08;7.27;;;3.73;;
10596;SDS011;5346;48.766;8.674;2022-11-03T07:35:50;7.07;;;3.57;;
10596;SDS011;5346;48.766;8.674;2022-11-03T07:38:41;12.27;;;3.73;;
10596;SDS011;5346;48.766;8.674;2022-11-03T07:41:18;7.87;;;3.70;;
10596;SDS011;5346;48.766;8.674;2022-11-03T07:44:00;11.10;;;3.87;;
10596;SDS011;5346;48.766;8.674;2022-11-03T07:46:28;11.83;;;4.17;;
10596;SDS011;5346;48.766;8.674;2022-11-03T07:48:57;8.00;;;4.00;;
10596;SDS011;5346;48.766;8.674;2022-11-03T07:51:36;8.47;;;4.60;;
10596;SDS011;5346;48.766;8.674;2022-11-03T07:56:37;11.07;;;4.53;;
10596;SDS011;5346;48.766;8.674;2022-11-03T07:59:22;11.30;;;5.60;;
10596;SDS011;5346;48.766;8.674;2022-11-03T08:02:05;9.50;;;4.70;;
10596;SDS011;5346;48.766;8.674;2022-11-03T08:05:02;7.43;;;4.53;;
10596;SDS011;5346;48.766;8.674;2022-11-03T08:07:30;9.43;;;5.03;;
10596;SDS011;5346;48.766;8.674;2022-11-03T08:09:58;10.60;;;5.10;;
10596;SDS011;5346;48.766;8.674;2022-11-03T08:12:35;9.43;;;5.10;;
10596;SDS011;5346;48.766;8.674;2022-11-03T08:15:02;13.00;;;5.38;;
10596;SDS011;5346;48.766;8.674;2022-11-03T08:17:31;11.17;;;4.80;;
10596;SDS011;5346;48.766;8.674;2022-11-03T08:20:04;12.27;;;5.70;;
10596;SDS011;5346;48.766;8.674;2022-11-03T08:22:32;11.90;;;5.70;;
10596;SDS011;5346;48.766;8.674;2022-11-03T08:25:00;7.95;;;4.97;;
10596;SDS011;5346;48.766;8.674;2022-11-03T08:27:34;8.50;;;5.20;;
10596;SDS011;5346;48.766;8.674;2022-11-03T08:30:02;9.82;;;5.30;;
10596;SDS011;5346;48.766;8.674;2022-11-03T08:32:30;9.75;;;4.72;;
10596;SDS011;5346;48.766;8.674;2022-11-03T08:35:04;9.88;;;5.03;;
10596;SDS011;5346;48.766;8.674;2022-11-03T08:37:44;6.40;;;4.47;;
10596;SDS011;5346;48.766;8.674;2022-11-03T08:40:18;8.10;;;3.95;;
10596;SDS011;5346;48.766;8.674;2022-11-03T08:42:46;9.18;;;4.10;;
10596;SDS011;5346;48.766;8.674;2022-11-03T08:45:15;7.88;;;4.13;;
10596;SDS011;5346;48.766;8.674;2022-11-03T08:47:50;7.03;;;3.60;;
10596;SDS011;5346;48.766;8.674;2022-11-03T08:50:17;6.32;;;3.40;;
10596;SDS011;5346;48.766;8.674;2022-11-03T08:52:45;7.20;;;3.20;;
10596;SDS011;5346;48.766;8.674;2022-11-03T08:55:18;5.95;;;3.20;;
10596;SDS011;5346;48.766;8.674;2022-11-03T08:57:46;7.20;;;2.92;;
10596;SDS011;5346;48.766;8.674;2022-11-03T09:00:14;5.93;;;3.17;;
10596;SDS011;5346;48.766;8.674;2022-11-03T09:02:51;6.13;;;2.97;;
10596;SDS011;5346;48.766;8.674;2022-11-03T09:05:19;6.07;;;2.78;;
10596;SDS011;5346;48.766;8.674;2022-11-03T09:07:47;4.47;;;2.40;;
10596;SDS011;5346;48.766;8.674;2022-11-03T09:10:41;5.28;;;2.10;;
10596;SDS011;5346;48.766;8.674;2022-11-03T09:13:09;5.82;;;2.20;;
10596;SDS011;5346;48.766;8.674;2022-11-03T09:15:43;7.18;;;2.30;;
10596;SDS011;5346;48.766;8.674;2022-11-03T09:18:11;3.65;;;2.03;;
10596;SDS011;5346;48.766;8.674;2022-11-03T09:20:38;5.22;;;2.58;;
10596;SDS011;5346;48.766;8.674;2022-11-03T09:23:12;5.15;;;2.50;;
10596;SDS011;5346;48.766;8.674;2022-11-03T09:25:40;6.55;;;2.92;;
10596;SDS011;5346;48.766;8.674;2022-11-03T09:28:07;5.78;;;2.30;;
10596;SDS011;5346;48.766;8.674;2022-11-03T09:30:41;6.65;;;2.63;;
10596;SDS011;5346;48.766;8.674;2022-11-03T09:33:09;4.78;;;2.65;;
10596;SDS011;5346;48.766;8.674;2022-11-03T09:35:36;4.47;;;2.65;;
10596;SDS011;5346;48.766;8.674;2022-11-03T09:38:11;5.57;;;2.72;;
10596;SDS011;5346;48.766;8.674;2022-11-03T09:40:39;6.70;;;2.83;;
10596;SDS011;5346;48.766;8.674;2022-11-03T09:43:07;7.80;;;2.97;;
10596;SDS011;5346;48.766;8.674;2022-11-03T09:45:42;5.05;;;2.92;;
10596;SDS011;5346;48.766;8.674;2022-11-03T09:48:10;4.35;;;2.88;;
10596;SDS011;5346;48.766;8.674;2022-11-03T09:50:38;6.28;;;3.00;;
10596;SDS011;5346;48.766;8.674;2022-11-03T09:53:13;4.93;;;2.88;;
10596;SDS011;5346;48.766;8.674;2022-11-03T09:55:41;5.05;;;2.92;;
10596;SDS011;5346;48.766;8.674;2022-11-03T09:58:12;7.03;;;2.80;;
10596;SDS011;5346;48.766;8.674;2022-11-03T10:00:48;4.13;;;2.78;;
10596;SDS011;5346;48.766;8.674;2022-11-03T10:03:16;6.90;;;3.15;;
10596;SDS011;5346;48.766;8.674;2022-11-03T10:05:46;6.05;;;3.00;;
10596;SDS011;5346;48.766;8.674;2022-11-03T10:08:27;5.45;;;2.40;;
10596;SDS011;5346;48.766;8.674;2022-11-03T10:10:57;5.10;;;2.65;;
10596;SDS011;5346;48.766;8.674;2022-11-03T10:13:36;5.57;;;2.60;;
10596;SDS011;5346;48.766;8.674;2022-11-03T10:16:07;3.78;;;2.20;;
10596;SDS011;5346;48.766;8.674;2022-11-03T10:18:43;3.88;;;2.50;;
10596;SDS011;5346;48.766;8.674;2022-11-03T10:21:13;6.95;;;2.28;;
10596;SDS011;5346;48.766;8.674;2022-11-03T10:23:41;5.28;;;1.75;;
10596;SDS011;5346;48.766;8.674;2022-11-03T10:26:18;3.28;;;1.90;;
10596;SDS011;5346;48.766;8.674;2022-11-03T10:28:56;4.18;;;2.22;;
10596;SDS011;5346;48.766;8.674;2022-11-03T10:31:38;5.45;;;2.63;;
10596;SDS011;5346;48.766;8.674;2022-11-03T10:34:22;2.83;;;2.17;;
10596;SDS011;5346;48.766;8.674;2022-11-03T10:37:13;5.07;;;2.65;;
10596;SDS011;5346;48.766;8.674;2022-11-03T10:39:55;2.63;;;2.20;;
10596;SDS011;5346;48.766;8.674;2022-11-03T10:42:56;3.92;;;2.70;;
10596;SDS011;5346;48.766;8.674;2022-11-03T10:45:25;5.47;;;2.20;;
10596;SDS011;5346;48.766;8.674;2022-11-03T10:48:00;4.07;;;2.40;;
10596;SDS011;5346;48.766;8.674;2022-11-03T10:50:38;6.65;;;2.45;;
10596;SDS011;5346;48.766;8.674;2022-11-03T10:53:15;5.35;;;2.42;;
10596;SDS011;5346;48.766;8.674;2022-11-03T10:55:45;4.55;;;2.53;;
10596;SDS011;5346;48.766;8.674;2022-11-03T10:58:13;3.75;;;2.00;;
10596;SDS011;5346;48.766;8.674;2022-11-03T11:00:47;4.95;;;2.00;;
10596;SDS011;5346;48.766;8.674;2022-11-03T11:03:15;4.35;;;2.10;;
10596;SDS011;5346;48.766;8.674;2022-11-03T11:05:46;3.58;;;2.38;;
10596;SDS011;5346;48.766;8.674;2022-11-03T11:08:21;4.80;;;2.38;;
10596;SDS011;5346;48.766;8.674;2022-11-03T11:10:49;5.57;;;2.63;;
10596;SDS011;5346;48.766;8.674;2022-11-03T11:16:00;4.20;;;2.33;;
10596;SDS011;5346;48.766;8.674;2022-11-03T11:31:44;4.97;;;2.65;;
10596;SDS011;5346;48.766;8.674;2022-11-03T11:42:06;5.50;;;2.75;;
10596;SDS011;5346;48.766;8.674;2022-11-03T11:44:57;6.45;;;2.28;;
10596;SDS011;5346;48.766;8.674;2022-11-03T11:47:47;4.22;;;2.17;;
10596;SDS011;5346;48.766;8.674;2022-11-03T11:50:23;4.55;;;2.28;;
10596;SDS011;5346;48.766;8.674;2022-11-03T11:53:08;2.90;;;1.90;;
10596;SDS011;5346;48.766;8.674;2022-11-03T11:55:46;5.05;;;1.90;;
10596;SDS011;5346;48.766;8.674;2022-11-03T11:58:18;3.03;;;2.30;;
10596;SDS011;5346;48.766;8.674;2022-11-03T12:01:04;3.28;;;1.85;;
10596;SDS011;5346;48.766;8.674;2022-11-03T12:03:47;6.07;;;2.05;;
10596;SDS011;5346;48.766;8.674;2022-11-03T12:06:33;3.38;;;2.00;;
10596;SDS011;5346;48.766;8.674;2022-11-03T12:25:00;3.30;;;2.28;;
10596;SDS011;5346;48.766;8.674;2022-11-03T12:30:05;3.13;;;1.92;;
10596;SDS011;5346;48.766;8.674;2022-11-03T12:32:46;5.35;;;2.45;;
10596;SDS011;5346;48.766;8.674;2022-11-03T12:35:14;5.30;;;2.67;;
10596;SDS011;5346;48.766;8.674;2022-11-03T12:38:02;4.38;;;2.78;;
10596;SDS011;5346;48.766;8.674;2022-11-03T12:40:30;3.03;;;2.58;;
10596;SDS011;5346;48.766;8.674;2022-11-03T12:43:04;5.10;;;2.65;;
10596;SDS011;5346;48.766;8.674;2022-11-03T12:45:32;3.92;;;2.78;;
10596;SDS011;5346;48.766;8.674;2022-11-03T12:48:00;4.10;;;2.80;;
10596;SDS011;5346;48.766;8.674;2022-11-03T12:50:34;7.35;;;3.00;;
10596;SDS011;5346;48.766;8.674;2022-11-03T12:53:03;4.70;;;3.00;;
10596;SDS011;5346;48.766;8.674;2022-11-03T12:55:45;3.88;;;3.10;;
10596;SDS011;5346;48.766;8.674;2022-11-03T12:58:13;5.68;;;3.20;;
10596;SDS011;5346;48.766;8.674;2022-11-03T13:00:40;4.57;;;2.97;;
10596;SDS011;5346;48.766;8.674;2022-11-03T13:03:20;6.20;;;2.90;;
10596;SDS011;5346;48.766;8.674;2022-11-03T13:05:48;5.00;;;3.05;;
10596;SDS011;5346;48.766;8.674;2022-11-03T13:08:21;4.88;;;2.78;;
10596;SDS011;5346;48.766;8.674;2022-11-03T13:10:50;4.78;;;3.13;;
10596;SDS011;5346;48.766;8.674;2022-11-03T13:13:19;10.15;;;3.65;;
10596;SDS011;5346;48.766;8.674;2022-11-03T13:15:53;3.67;;;2.75;;
10596;SDS011;5346;48.766;8.674;2022-11-03T13:18:21;3.83;;;3.33;;
10596;SDS011;5346;48.766;8.674;2022-11-03T13:20:48;3.17;;;2.88;;
10596;SDS011;5346;48.766;8.674;2022-11-03T13:23:23;4.43;;;3.17;;
10596;SDS011;5346;48.766;8.674;2022-11-03T13:25:51;5.18;;;3.10;;
10596;SDS011;5346;48.766;8.674;2022-11-03T13:28:19;5.10;;;2.70;;
10596;SDS011;5346;48.766;8.674;2022-11-03T13:30:53;4.38;;;2.95;;
10596;SDS011;5346;48.766;8.674;2022-11-03T13:33:20;6.63;;;3.20;;
10596;SDS011;5346;48.766;8.674;2022-11-03T13:35:48;3.65;;;2.40;;
10596;SDS011;5346;48.766;8.674;2022-11-03T13:38:22;6.20;;;2.40;;
10596;SDS011;5346;48.766;8.674;2022-11-03T13:40:50;4.75;;;2.60;;
10596;SDS011;5346;48.766;8.674;2022-11-03T13:43:23;3.40;;;2.58;;
10596;SDS011;5346;48.766;8.674;2022-11-03T13:45:57;2.53;;;2.25;;
10596;SDS011;5346;48.766;8.674;2022-11-03T13:48:28;6.75;;;3.05;;
10596;SDS011;5346;48.766;8.674;2022-11-03T13:51:15;4.25;;;2.60;;
10596;SDS011;5346;48.766;8.674;2022-11-03T13:53:50;4.70;;;2.40;;
10596;SDS011;5346;48.766;8.674;2022-11-03T13:56:37;3.63;;;2.17;;
10596;SDS011;5346;48.766;8.674;2022-11-03T13:59:34;4.38;;;2.40;;
10596;SDS011;5346;48.766;8.674;2022-11-03T14:02:02;4.97;;;2.88;;
10596;SDS011;5346;48.766;8.674;2022-11-03T14:04:57;3.85;;;3.00;;
10596;SDS011;5346;48.766;8.674;2022-11-03T14:07:25;6.00;;;3.42;;
10596;SDS011;5346;48.766;8.674;2022-11-03T14:09:59;5.88;;;3.17;;
10596;SDS011;5346;48.766;8.674;2022-11-03T14:12:29;5.35;;;3.20;;
10596;SDS011;5346;48.766;8.674;2022-11-03T14:14:57;5.78;;;2.85;;
10596;SDS011;5346;48.766;8.674;2022-11-03T14:17:32;5.65;;;3.15;;
10596;SDS011;5346;48.766;8.674;2022-11-03T14:20:02;3.65;;;2.55;;
10596;SDS011;5346;48.766;8.674;2022-11-03T14:22:30;5.57;;;2.78;;
10596;SDS011;5346;48.766;8.674;2022-11-03T14:25:05;7.53;;;4.03;;
10596;SDS011;5346;48.766;8.674;2022-11-03T14:27:34;3.90;;;3.05;;
10596;SDS011;5346;48.766;8.674;2022-11-03T14:30:02;5.20;;;3.55;;
10596;SDS011;5346;48.766;8.674;2022-11-03T14:32:36;6.30;;;3.85;;
10596;SDS011;5346;48.766;8.674;2022-11-03T14:35:12;6.53;;;3.75;;
10596;SDS011;5346;48.766;8.674;2022-11-03T14:37:54;5.07;;;3.70;;
10596;SDS011;5346;48.766;8.674;2022-11-03T14:40:22;6.20;;;4.10;;
10596;SDS011;5346;48.766;8.674;2022-11-03T14:43:14;5.68;;;3.58;;
10596;SDS011;5346;48.766;8.674;2022-11-03T14:45:42;4.75;;;3.70;;
10596;SDS011;5346;48.766;8.674;2022-11-03T14:48:09;5.68;;;3.95;;
10596;SDS011;5346;48.766;8.674;2022-11-03T14:50:43;6.35;;;4.10;;
10596;SDS011;5346;48.766;8.674;2022-11-03T14:53:10;5.57;;;3.75;;
10596;SDS011;5346;48.766;8.674;2022-11-03T14:55:38;6.70;;;4.50;;
10596;SDS011;5346;48.766;8.674;2022-11-03T14:58:12;7.32;;;4.20;;
10596;SDS011;5346;48.766;8.674;2022-11-03T15:00:40;6.57;;;4.30;;
10596;SDS011;5346;48.766;8.674;2022-11-03T15:03:07;8.50;;;4.00;;
10596;SDS011;5346;48.766;8.674;2022-11-03T15:05:41;5.68;;;4.47;;
10596;SDS011;5346;48.766;8.674;2022-11-03T15:08:12;7.43;;;4.28;;
10596;SDS011;5346;48.766;8.674;2022-11-03T15:10:48;7.30;;;4.40;;
10596;SDS011;5346;48.766;8.674;2022-11-03T15:13:16;7.53;;;4.22;;
10596;SDS011;5346;48.766;8.674;2022-11-03T15:15:44;6.10;;;4.45;;
10596;SDS011;5346;48.766;8.674;2022-11-03T15:18:19;8.27;;;4.50;;
10596;SDS011;5346;48.766;8.674;2022-11-03T15:20:47;5.53;;;4.18;;
10596;SDS011;5346;48.766;8.674;2022-11-03T15:23:15;7.37;;;4.10;;
10596;SDS011;5346;48.766;8.674;2022-11-03T15:26:09;7.90;;;4.10;;
10596;SDS011;5346;48.766;8.674;2022-11-03T15:28:38;5.88;;;4.45;;
10596;SDS011;5346;48.766;8.674;2022-11-03T15:31:14;7.05;;;4.53;;
10596;SDS011;5346;48.766;8.674;2022-11-03T15:33:42;5.55;;;4.20;;
10596;SDS011;5346;48.766;8.674;2022-11-03T15:36:09;5.68;;;4.15;;
10596;SDS011;5346;48.766;8.674;2022-11-03T15:38:50;5.90;;;4.78;;
10596;SDS011;5346;48.766;8.674;2022-11-03T15:41:17;7.40;;;4.40;;
10596;SDS011;5346;48.766;8.674;2022-11-03T15:43:52;6.38;;;4.13;;
10596;SDS011;5346;48.766;8.674;2022-11-03T15:46:19;8.95;;;4.57;;
10596;SDS011;5346;48.766;8.674;2022-11-03T15:48:47;7.32;;;4.43;;
10596;SDS011;5346;48.766;8.674;2022-11-03T15:51:21;7.03;;;4.05;;
10596;SDS011;5346;48.766;8.674;2022-11-03T15:53:49;5.75;;;3.55;;
10596;SDS011;5346;48.766;8.674;2022-11-03T15:56:24;5.05;;;3.80;;
10596;SDS011;5346;48.766;8.674;2022-11-03T15:58:58;8.63;;;4.13;;
10596;SDS011;5346;48.766;8.674;2022-11-03T16:01:25;6.03;;;4.35;;
10596;SDS011;5346;48.766;8.674;2022-11-03T16:03:53;7.72;;;4.30;;
10596;SDS011;5346;48.766;8.674;2022-11-03T16:06:27;5.07;;;4.05;;
10596;SDS011;5346;48.766;8.674;2022-11-03T16:09:15;6.97;;;4.00;;
10596;SDS011;5346;48.766;8.674;2022-11-03T16:11:49;6.05;;;3.67;;
10596;SDS011;5346;48.766;8.674;2022-11-03T16:14:17;6.75;;;3.70;;
10596;SDS011;5346;48.766;8.674;2022-11-03T16:16:44;5.38;;;3.60;;
10596;SDS011;5346;48.766;8.674;2022-11-03T16:19:18;7.97;;;4.18;;
10596;SDS011;5346;48.766;8.674;2022-11-03T16:21:45;6.45;;;4.22;;
10596;SDS011;5346;48.766;8.674;2022-11-03T16:24:13;5.60;;;3.95;;
10596;SDS011;5346;48.766;8.674;2022-11-03T16:26:47;9.20;;;4.88;;
10596;SDS011;5346;48.766;8.674;2022-11-03T16:29:17;6.93;;;4.07;;
10596;SDS011;5346;48.766;8.674;2022-11-03T16:31:45;12.65;;;4.47;;
10596;SDS011;5346;48.766;8.674;2022-11-03T16:34:22;6.22;;;4.65;;
10596;SDS011;5346;48.766;8.674;2022-11-03T16:36:50;7.15;;;4.15;;
10596;SDS011;5346;48.766;8.674;2022-11-03T16:39:30;6.70;;;4.85;;
10596;SDS011;5346;48.766;8.674;2022-11-03T16:41:59;7.25;;;4.57;;
10596;SDS011;5346;48.766;8.674;2022-11-03T16:44:28;6.80;;;4.50;;
10596;SDS011;5346;48.766;8.674;2022-11-03T16:47:02;5.80;;;4.68;;
10596;SDS011;5346;48.766;8.674;2022-11-03T16:49:30;9.82;;;4.50;;
10596;SDS011;5346;48.766;8.674;2022-11-03T16:51:58;7.72;;;4.55;;
10596;SDS011;5346;48.766;8.674;2022-11-03T16:54:32;10.40;;;4.30;;
10596;SDS011;5346;48.766;8.674;2022-11-03T16:57:00;6.25;;;4.10;;
10596;SDS011;5346;48.766;8.674;2022-11-03T16:59:27;6.00;;;4.17;;
10596;SDS011;5346;48.766;8.674;2022-11-03T17:02:01;9.52;;;4.45;;